Time;durP1;ratioP1;P1;durP2;ratioP2;P2;SDS_P1;SDS_P2;PMS_P1;PMS_P2;Temp;Humidity;BMP_temperature;BMP_pressure;BME280_temperature;BME280_humidity;BME280_pressure;Samples;Min_cycle;Max_cycle;Signal;HPM_P1;HPM_P2
2022/07/16 00:02:19;;;;;;;9.60;3.92;;;16.40;99.90;;;;;;5016228;28;20080;-76
2022/07/16 00:04:45;;;;;;;8.05;3.42;;;16.40;99.90;;;;;;5033344;28;20068;-76
2022/07/16 00:07:11;;;;;;;5.95;3.78;;;16.40;99.90;;;;;;5029654;28;20060;-76
2022/07/16 00:09:37;;;;;;;7.10;3.70;;;16.40;99.90;;;;;;5030821;28;20049;-76
2022/07/16 00:12:03;;;;;;;8.65;4.07;;;16.40;99.90;;;;;;5011272;28;20065;-75
2022/07/16 00:14:28;;;;;;;10.38;4.07;;;16.50;99.90;;;;;;5013075;28;20546;-76
2022/07/16 00:16:54;;;;;;;8.52;3.75;;;16.50;99.90;;;;;;5017254;28;20501;-76
2022/07/16 00:19:20;;;;;;;5.15;3.42;;;16.50;99.90;;;;;;5010724;28;20095;-76
2022/07/16 00:21:49;;;;;;;10.18;4.00;;;16.60;99.90;;;;;;5028840;28;20053;-77
2022/07/16 00:24:16;;;;;;;9.98;4.82;;;16.60;99.90;;;;;;5012040;28;20100;-75
2022/07/16 00:26:41;;;;;;;7.72;2.63;;;16.70;99.90;;;;;;5034606;28;20068;-75
2022/07/16 00:29:07;;;;;;;4.63;1.83;;;16.60;99.90;;;;;;5031852;28;20127;-74
2022/07/16 00:31:33;;;;;;;5.65;1.88;;;16.50;99.90;;;;;;5038827;28;20436;-75
2022/07/16 00:33:58;;;;;;;6.28;1.83;;;16.50;99.90;;;;;;5028180;28;20052;-75
2022/07/16 00:36:24;;;;;;;4.57;1.60;;;16.40;99.90;;;;;;5019060;28;20048;-74
2022/07/16 00:38:50;;;;;;;7.30;2.00;;;16.30;99.90;;;;;;5008008;28;20045;-74
2022/07/16 00:41:18;;;;;;;9.85;2.80;;;16.20;99.90;;;;;;5032554;28;20413;-74
2022/07/16 00:44:00;;;;;;;8.15;2.03;;;16.10;99.90;;;;;;5030103;28;20041;-74
2022/07/16 00:46:26;;;;;;;8.85;2.58;;;16.10;99.90;;;;;;5029833;28;20432;-74
2022/07/16 00:48:51;;;;;;;6.70;2.35;;;16.00;99.90;;;;;;5033394;28;20504;-74
2022/07/16 00:51:17;;;;;;;7.40;2.28;;;16.00;99.90;;;;;;5015627;28;20037;-74
2022/07/16 00:53:44;;;;;;;7.80;2.45;;;15.90;99.90;;;;;;5014049;28;20136;-73
2022/07/16 00:56:11;;;;;;;9.20;2.35;;;15.90;99.90;;;;;;5024945;28;20049;-74
2022/07/16 00:58:42;;;;;;;11.30;2.25;;;15.90;99.90;;;;;;4999596;28;20053;-74
2022/07/16 01:01:09;;;;;;;7.45;2.22;;;15.90;99.90;;;;;;5007281;28;20140;-74
2022/07/16 01:03:35;;;;;;;12.05;2.38;;;15.90;99.90;;;;;;5011190;28;20061;-74
2022/07/16 01:06:05;;;;;;;10.85;2.53;;;15.90;99.90;;;;;;5012877;28;20161;-73
2022/07/16 01:08:38;;;;;;;8.05;1.92;;;15.90;99.90;;;;;;5009557;28;20409;-74
2022/07/16 01:11:06;;;;;;;6.10;1.48;;;15.90;99.90;;;;;;5002680;28;20050;-74
2022/07/16 01:13:33;;;;;;;4.22;1.40;;;16.00;99.90;;;;;;5008970;28;20049;-75
2022/07/16 01:15:59;;;;;;;5.07;1.70;;;15.90;99.90;;;;;;5010637;28;20042;-74
2022/07/16 01:18:25;;;;;;;7.25;1.58;;;15.90;99.90;;;;;;5005527;28;20045;-75
2022/07/16 01:20:51;;;;;;;6.05;1.55;;;16.00;99.90;;;;;;5008752;28;20169;-76
2022/07/16 01:23:23;;;;;;;4.93;1.35;;;15.90;99.90;;;;;;5008401;28;20400;-75
2022/07/16 01:25:50;;;;;;;7.40;1.40;;;15.90;99.90;;;;;;5011353;28;20050;-75
2022/07/16 01:28:16;;;;;;;4.68;1.60;;;15.90;99.90;;;;;;5015003;28;20413;-76
2022/07/16 01:30:42;;;;;;;6.43;1.60;;;15.90;99.90;;;;;;5006658;28;20517;-76
2022/07/16 01:33:21;;;;;;;3.80;1.77;;;15.90;99.90;;;;;;5009620;28;20068;-76
2022/07/16 01:35:48;;;;;;;6.63;1.75;;;15.90;99.90;;;;;;5011902;28;20057;-76
2022/07/16 01:38:13;;;;;;;5.18;1.70;;;15.80;99.90;;;;;;5002476;28;20073;-76
2022/07/16 01:40:39;;;;;;;5.05;1.80;;;15.90;99.90;;;;;;5002969;28;20140;-77
2022/07/16 01:43:13;;;;;;;6.72;2.22;;;15.80;99.90;;;;;;5014055;28;20085;-77
2022/07/16 01:45:39;;;;;;;6.90;1.85;;;15.80;99.90;;;;;;5008585;28;20421;-77
2022/07/16 01:48:05;;;;;;;7.03;1.75;;;15.80;99.90;;;;;;5012943;28;20053;-76
2022/07/16 01:50:30;;;;;;;5.28;1.90;;;15.70;99.90;;;;;;5012407;28;20045;-76
2022/07/16 01:52:56;;;;;;;5.82;1.52;;;15.80;99.90;;;;;;5005084;28;20505;-76
2022/07/16 01:55:21;;;;;;;5.63;1.67;;;15.70;99.90;;;;;;5011652;28;20072;-76
2022/07/16 01:57:47;;;;;;;4.90;1.70;;;15.70;99.90;;;;;;5014639;28;20050;-76
2022/07/16 02:00:13;;;;;;;5.85;1.60;;;15.60;99.90;;;;;;5010869;28;20048;-76
2022/07/16 02:02:39;;;;;;;6.85;2.00;;;15.60;99.90;;;;;;5023122;28;20038;-77
2022/07/16 02:05:05;;;;;;;3.67;1.60;;;15.60;99.90;;;;;;5008447;28;20520;-77
2022/07/16 02:07:31;;;;;;;5.05;1.85;;;15.60;99.90;;;;;;5012667;28;20046;-77
2022/07/16 02:09:56;;;;;;;7.40;1.77;;;15.60;99.90;;;;;;5013130;28;20412;-77
2022/07/16 02:12:22;;;;;;;4.28;1.95;;;15.50;99.90;;;;;;5016850;28;20434;-77
2022/07/16 02:14:48;;;;;;;9.10;2.17;;;15.50;99.90;;;;;;5008621;28;20145;-76
2022/07/16 02:17:13;;;;;;;5.45;1.83;;;15.50;99.90;;;;;;5012520;28;20508;-75
2022/07/16 02:19:39;;;;;;;5.18;1.63;;;15.50;99.90;;;;;;5010122;28;20053;-74
2022/07/16 02:22:06;;;;;;;6.85;1.92;;;15.50;99.90;;;;;;5018152;28;20085;-74
2022/07/16 02:24:32;;;;;;;5.22;2.00;;;15.50;99.90;;;;;;5018531;28;20070;-74
2022/07/16 02:26:58;;;;;;;4.95;2.00;;;15.50;99.90;;;;;;5012304;28;20076;-74
2022/07/16 02:29:23;;;;;;;6.28;2.30;;;15.40;99.90;;;;;;5022104;28;20123;-74
2022/07/16 02:31:49;;;;;;;4.25;1.90;;;15.40;99.90;;;;;;5020678;28;20099;-74
2022/07/16 02:34:16;;;;;;;8.95;1.90;;;15.40;99.90;;;;;;5011026;28;20352;-76
2022/07/16 02:36:41;;;;;;;8.63;2.17;;;15.40;99.90;;;;;;5014504;28;20068;-76
2022/07/16 02:39:07;;;;;;;7.65;1.98;;;15.40;99.90;;;;;;5006442;28;20482;-75
2022/07/16 02:41:33;;;;;;;6.57;2.33;;;15.40;99.90;;;;;;5017049;28;20048;-78
2022/07/16 02:43:59;;;;;;;6.22;2.30;;;15.30;99.90;;;;;;5010988;28;20052;-77
2022/07/16 02:46:24;;;;;;;6.47;2.17;;;15.30;99.90;;;;;;5023391;28;20136;-77
2022/07/16 02:48:50;;;;;;;8.32;2.03;;;15.30;99.90;;;;;;5018925;28;20050;-77
2022/07/16 02:51:15;;;;;;;8.43;2.00;;;15.30;99.90;;;;;;5025472;28;20107;-76
2022/07/16 02:53:41;;;;;;;12.13;2.40;;;15.20;99.90;;;;;;5028942;28;20421;-76
2022/07/16 02:56:07;;;;;;;9.27;2.80;;;15.10;99.90;;;;;;5041532;28;20052;-76
2022/07/16 02:58:32;;;;;;;8.98;2.53;;;15.20;99.90;;;;;;5017508;28;20507;-76
2022/07/16 03:00:58;;;;;;;7.47;2.40;;;15.10;99.90;;;;;;5014857;28;20057;-76
2022/07/16 03:03:24;;;;;;;9.00;2.30;;;15.00;99.90;;;;;;5024525;28;20049;-75
2022/07/16 03:05:49;;;;;;;7.90;2.20;;;14.90;99.90;;;;;;5032692;28;20116;-76
2022/07/16 03:08:15;;;;;;;7.40;2.30;;;14.90;99.90;;;;;;5036324;28;20128;-77
2022/07/16 03:10:41;;;;;;;7.18;2.55;;;14.90;99.90;;;;;;5035069;28;20599;-75
2022/07/16 03:13:06;;;;;;;6.15;2.28;;;14.80;99.90;;;;;;5031978;28;20046;-75
2022/07/16 03:15:32;;;;;;;7.30;2.50;;;14.80;99.90;;;;;;5033302;28;20045;-76
2022/07/16 03:17:57;;;;;;;9.32;2.83;;;14.80;99.90;;;;;;5034887;28;20049;-76
2022/07/16 03:20:23;;;;;;;7.05;2.55;;;14.70;99.90;;;;;;5035579;28;20045;-76
2022/07/16 03:22:49;;;;;;;5.72;2.28;;;14.70;99.90;;;;;;5017712;28;20074;-75
2022/07/16 03:25:16;;;;;;;8.18;2.28;;;14.60;99.90;;;;;;5020297;28;20463;-76
2022/07/16 03:27:41;;;;;;;5.63;2.00;;;14.70;99.90;;;;;;5032783;28;20065;-76
2022/07/16 03:30:08;;;;;;;8.00;1.98;;;14.60;99.90;;;;;;5008353;28;20033;-76
2022/07/16 03:32:33;;;;;;;6.95;2.10;;;14.60;99.90;;;;;;4996715;28;20056;-76
2022/07/16 03:35:02;;;;;;;5.75;1.77;;;14.60;99.90;;;;;;5017495;28;20212;-76
2022/07/16 03:37:28;;;;;;;7.28;1.52;;;14.60;99.90;;;;;;5011872;28;20041;-76
2022/07/16 03:39:53;;;;;;;12.52;2.20;;;14.50;99.90;;;;;;5014493;28;20053;-76
2022/07/16 03:42:19;;;;;;;6.32;1.60;;;14.50;99.90;;;;;;5041211;28;20534;-75
2022/07/16 03:44:44;;;;;;;7.78;2.22;;;14.60;99.90;;;;;;5040522;28;20060;-76
2022/07/16 03:47:10;;;;;;;6.47;1.63;;;14.50;99.90;;;;;;5013754;28;20041;-75
2022/07/16 03:49:36;;;;;;;7.57;1.60;;;14.50;99.90;;;;;;5029575;28;20422;-76
2022/07/16 03:52:01;;;;;;;8.80;1.98;;;14.50;99.90;;;;;;5036269;28;20128;-75
2022/07/16 03:54:27;;;;;;;5.45;1.70;;;14.40;99.90;;;;;;4996754;28;20136;-76
2022/07/16 03:56:52;;;;;;;6.93;1.70;;;14.40;99.90;;;;;;5013798;28;20084;-76
2022/07/16 03:59:18;;;;;;;5.15;1.50;;;14.50;99.90;;;;;;5016714;28;20045;-75
2022/07/16 04:01:44;;;;;;;9.20;1.80;;;14.50;99.90;;;;;;5007072;28;20136;-75
2022/07/16 04:04:09;;;;;;;7.18;1.67;;;14.50;99.90;;;;;;5005037;28;20474;-75
2022/07/16 04:06:35;;;;;;;11.77;1.83;;;14.50;99.90;;;;;;5005557;28;20042;-75
2022/07/16 04:09:01;;;;;;;10.10;2.42;;;14.50;99.90;;;;;;5018070;28;20037;-75
2022/07/16 04:11:26;;;;;;;9.95;1.90;;;14.50;99.90;;;;;;5009791;28;20069;-76
2022/07/16 04:13:52;;;;;;;8.85;1.52;;;14.50;99.90;;;;;;5012762;28;20054;-76
2022/07/16 04:16:17;;;;;;;7.28;2.00;;;14.60;99.90;;;;;;5016723;28;20045;-75
2022/07/16 04:18:43;;;;;;;9.25;1.67;;;14.80;99.90;;;;;;5009623;28;20054;-76
2022/07/16 04:21:09;;;;;;;7.45;1.80;;;15.00;99.90;;;;;;5016273;28;20048;-75
2022/07/16 04:23:34;;;;;;;7.93;1.95;;;15.40;99.90;;;;;;5011947;28;20132;-75
2022/07/16 04:26:00;;;;;;;10.80;1.88;;;15.50;99.90;;;;;;5011491;28;20472;-76
2022/07/16 04:28:26;;;;;;;5.13;1.70;;;15.80;99.90;;;;;;5008526;28;20046;-75
2022/07/16 04:30:52;;;;;;;5.78;1.45;;;15.80;99.90;;;;;;5008870;28;20072;-75
2022/07/16 04:33:17;;;;;;;7.03;1.50;;;15.80;99.90;;;;;;5018900;28;20058;-75
2022/07/16 04:35:43;;;;;;;8.43;2.22;;;15.70;99.90;;;;;;5011846;28;20072;-75
2022/07/16 04:38:09;;;;;;;8.52;1.88;;;15.40;99.90;;;;;;5011180;28;20041;-75
2022/07/16 04:40:34;;;;;;;5.40;1.80;;;15.30;99.90;;;;;;5006953;28;20126;-76
2022/07/16 04:43:00;;;;;;;13.05;2.22;;;15.10;99.90;;;;;;5008944;28;20058;-75
2022/07/16 04:45:25;;;;;;;9.55;1.98;;;15.10;99.90;;;;;;5013022;28;20129;-75
2022/07/16 04:47:51;;;;;;;5.85;1.80;;;15.00;99.90;;;;;;5003592;28;20069;-75
2022/07/16 04:50:17;;;;;;;8.52;1.48;;;14.90;99.90;;;;;;5007909;28;20132;-75
2022/07/16 04:52:42;;;;;;;8.65;1.90;;;14.90;99.90;;;;;;5011809;28;20498;-76
2022/07/16 04:55:08;;;;;;;5.72;1.50;;;14.80;99.90;;;;;;5007835;28;20057;-76
2022/07/16 04:57:34;;;;;;;11.35;1.67;;;14.80;99.90;;;;;;5006327;28;20095;-76
2022/07/16 05:00:00;;;;;;;6.32;1.50;;;14.80;99.90;;;;;;5018238;28;20042;-76
2022/07/16 05:05:09;;;;;;;7.80;1.58;;;14.90;99.90;;;;;;5012161;28;20046;-75
2022/07/16 05:07:39;;;;;;;6.07;1.45;;;15.00;99.90;;;;;;5020617;28;20045;-76
2022/07/16 05:10:05;;;;;;;6.72;1.70;;;15.00;99.90;;;;;;5013167;28;20034;-76
2022/07/16 05:12:31;;;;;;;10.93;1.60;;;15.20;99.90;;;;;;5021905;28;20038;-75
2022/07/16 05:14:57;;;;;;;10.02;1.55;;;15.20;99.90;;;;;;5014285;28;20525;-76
2022/07/16 05:17:24;;;;;;;5.60;1.25;;;15.30;99.90;;;;;;5028571;28;20050;-76
2022/07/16 05:20:05;;;;;;;6.65;1.52;;;15.50;99.90;;;;;;5014505;28;20041;-76
2022/07/16 05:22:31;;;;;;;7.68;1.40;;;15.70;99.90;;;;;;5009540;28;20035;-75
2022/07/16 05:25:08;;;;;;;6.30;1.70;;;15.90;99.90;;;;;;5012572;28;20190;-75
2022/07/16 05:27:34;;;;;;;3.72;1.20;;;16.20;99.90;;;;;;5017893;28;20049;-76
2022/07/16 05:30:00;;;;;;;4.20;1.48;;;16.40;99.90;;;;;;5012877;28;20061;-76
2022/07/16 05:32:26;;;;;;;3.55;1.10;;;16.50;99.90;;;;;;5015293;28;20063;-76
2022/07/16 05:34:51;;;;;;;9.00;2.50;;;16.60;99.90;;;;;;5016267;28;20042;-76
2022/07/16 05:37:17;;;;;;;9.80;1.83;;;16.70;99.90;;;;;;5007968;28;20456;-76
2022/07/16 05:39:43;;;;;;;11.25;2.22;;;16.70;99.90;;;;;;5013865;28;20044;-75
2022/07/16 05:42:09;;;;;;;9.73;1.60;;;16.80;99.90;;;;;;5013150;28;20449;-76
2022/07/16 05:44:35;;;;;;;5.07;1.40;;;16.80;99.90;;;;;;5015208;28;20547;-75
2022/07/16 05:47:00;;;;;;;8.02;1.50;;;16.80;99.90;;;;;;5009009;28;20034;-76
2022/07/16 05:49:26;;;;;;;4.22;1.05;;;16.90;99.90;;;;;;5025866;28;20045;-76
2022/07/16 05:51:51;;;;;;;5.72;1.60;;;17.10;99.90;;;;;;5008812;28;20049;-76
2022/07/16 05:54:17;;;;;;;6.70;1.52;;;17.30;99.90;;;;;;5006445;28;20524;-76
2022/07/16 05:56:43;;;;;;;9.57;1.30;;;17.50;99.90;;;;;;5033362;28;20501;-76
2022/07/16 05:59:08;;;;;;;9.50;1.90;;;17.60;99.90;;;;;;5032603;28;20053;-76
2022/07/16 06:01:34;;;;;;;9.23;1.52;;;17.70;99.90;;;;;;5009718;28;20050;-76
2022/07/16 06:04:00;;;;;;;4.18;0.90;;;17.60;99.90;;;;;;5033348;28;20516;-76
2022/07/16 06:06:25;;;;;;;7.00;1.45;;;17.50;99.90;;;;;;5027396;28;20212;-76
2022/07/16 06:08:51;;;;;;;5.22;1.30;;;17.30;99.90;;;;;;5034301;28;20108;-75
2022/07/16 06:11:16;;;;;;;5.53;1.15;;;17.10;99.90;;;;;;5034621;28;20111;-75
2022/07/16 06:13:42;;;;;;;8.98;2.03;;;16.90;99.90;;;;;;5039246;28;20393;-76
2022/07/16 06:16:08;;;;;;;4.93;1.10;;;16.80;99.90;;;;;;5019260;28;20385;-76
2022/07/16 06:18:35;;;;;;;5.15;1.48;;;16.60;99.90;;;;;;5013017;28;20080;-76
2022/07/16 06:21:02;;;;;;;9.70;1.48;;;16.60;99.90;;;;;;5028328;28;20059;-74
2022/07/16 06:23:27;;;;;;;5.88;1.30;;;16.50;99.90;;;;;;4995202;28;20638;-76
2022/07/16 06:25:53;;;;;;;7.53;1.33;;;16.50;99.90;;;;;;5028066;28;20041;-75
2022/07/16 06:28:19;;;;;;;6.35;1.27;;;16.50;99.90;;;;;;5036672;28;20043;-75
2022/07/16 06:30:45;;;;;;;5.10;1.40;;;16.50;99.90;;;;;;5009719;28;20041;-75
2022/07/16 06:33:10;;;;;;;9.60;1.50;;;16.50;99.90;;;;;;5034057;28;20418;-75
2022/07/16 06:35:36;;;;;;;9.45;1.58;;;16.40;99.90;;;;;;5032357;28;20507;-76
2022/07/16 06:38:03;;;;;;;8.77;1.55;;;16.40;99.90;;;;;;5010492;28;20088;-75
2022/07/16 06:40:29;;;;;;;5.05;1.13;;;16.40;99.90;;;;;;5031168;28;20242;-75
2022/07/16 06:42:54;;;;;;;5.53;1.10;;;16.60;99.90;;;;;;5017679;28;20190;-80
2022/07/16 06:45:20;;;;;;;4.65;1.00;;;16.80;99.90;;;;;;5030613;28;20104;-79
2022/07/16 06:47:45;;;;;;;8.50;1.60;;;17.00;99.90;;;;;;5034242;28;20049;-74
2022/07/16 06:50:11;;;;;;;6.35;1.38;;;17.30;99.90;;;;;;5017987;28;20041;-75
2022/07/16 06:52:37;;;;;;;5.00;1.08;;;17.50;99.90;;;;;;5014068;28;20041;-75
2022/07/16 06:55:04;;;;;;;4.90;1.10;;;17.80;99.90;;;;;;5016883;28;20048;-75
2022/07/16 06:57:29;;;;;;;5.90;1.17;;;18.00;99.90;;;;;;5020490;28;20046;-74
2022/07/16 06:59:55;;;;;;;4.63;1.25;;;18.10;99.90;;;;;;5026423;28;20638;-72
2022/07/16 07:02:20;;;;;;;4.55;0.98;;;18.20;99.90;;;;;;5018068;28;20115;-72
2022/07/16 07:04:46;;;;;;;5.63;1.35;;;18.30;99.90;;;;;;5031068;28;20046;-69
2022/07/16 07:07:12;;;;;;;7.30;1.20;;;18.40;99.90;;;;;;5014017;28;20052;-73
2022/07/16 07:09:37;;;;;;;6.50;1.35;;;18.50;99.90;;;;;;5022450;28;20224;-73
2022/07/16 07:12:04;;;;;;;5.95;1.13;;;18.60;99.90;;;;;;5031908;28;20574;-72
2022/07/16 07:14:30;;;;;;;2.55;0.77;;;18.70;99.90;;;;;;5045962;28;20051;-72
2022/07/16 07:16:56;;;;;;;6.43;2.08;;;18.80;99.90;;;;;;5015028;28;20476;-72
2022/07/16 07:19:21;;;;;;;3.67;1.00;;;18.80;99.90;;;;;;5010876;28;20046;-70
2022/07/16 07:21:47;;;;;;;3.72;1.20;;;18.90;99.90;;;;;;5016743;28;20345;-70
2022/07/16 07:24:12;;;;;;;4.85;1.23;;;19.00;99.90;;;;;;5031563;28;20488;-70
2022/07/16 07:26:38;;;;;;;4.47;0.82;;;19.20;99.70;;;;;;5032526;28;20045;-70
2022/07/16 07:29:04;;;;;;;3.60;1.05;;;19.40;98.90;;;;;;5011022;28;20132;-70
2022/07/16 07:31:30;;;;;;;4.47;1.30;;;19.50;99.30;;;;;;4994905;28;20052;-71
2022/07/16 07:33:55;;;;;;;5.82;1.40;;;19.50;98.20;;;;;;5013029;28;20042;-70
2022/07/16 07:36:21;;;;;;;4.55;0.90;;;19.40;97.70;;;;;;5031469;28;20676;-72
2022/07/16 07:38:47;;;;;;;4.88;1.15;;;19.20;98.60;;;;;;5016296;28;20045;-70
2022/07/16 07:41:12;;;;;;;4.25;1.27;;;18.90;98.10;;;;;;5016638;28;20064;-71
2022/07/16 07:43:39;;;;;;;7.50;1.08;;;18.70;98.10;;;;;;5022788;28;20172;-70
2022/07/16 07:46:06;;;;;;;4.97;1.48;;;18.60;98.60;;;;;;4994506;28;20632;-69
2022/07/16 07:48:34;;;;;;;10.63;1.23;;;18.60;99.40;;;;;;5013124;28;20050;-71
2022/07/16 07:51:00;;;;;;;5.00;1.30;;;18.50;98.80;;;;;;5014090;28;20037;-76
2022/07/16 07:53:26;;;;;;;3.95;1.20;;;18.80;99.90;;;;;;5026313;28;20053;-72
2022/07/16 07:55:52;;;;;;;4.63;1.35;;;19.20;99.90;;;;;;5025967;28;20068;-73
2022/07/16 07:58:17;;;;;;;3.40;1.13;;;19.50;99.40;;;;;;5030209;28;21200;-73
2022/07/16 08:00:43;;;;;;;5.22;1.42;;;19.40;97.90;;;;;;4988710;28;20049;-71
2022/07/16 08:03:09;;;;;;;4.03;1.17;;;19.20;97.40;;;;;;4990322;28;20413;-73
2022/07/16 08:05:35;;;;;;;8.73;1.40;;;18.90;97.60;;;;;;4996685;28;20056;-73
2022/07/16 08:08:01;;;;;;;4.93;1.25;;;18.80;98.70;;;;;;5010434;28;20050;-74
2022/07/16 08:10:28;;;;;;;4.70;0.90;;;19.00;99.10;;;;;;4987140;28;20529;-70
2022/07/16 08:12:53;;;;;;;7.18;1.27;;;19.20;98.70;;;;;;4997462;28;20045;-74
2022/07/16 08:15:19;;;;;;;9.10;1.45;;;19.60;97.80;;;;;;4991579;28;20041;-72
2022/07/16 08:17:45;;;;;;;6.97;1.27;;;20.00;98.40;;;;;;4996646;28;20042;-71
2022/07/16 08:20:13;;;;;;;4.65;1.20;;;20.30;98.30;;;;;;5015971;28;20044;-71
2022/07/16 08:22:39;;;;;;;5.75;1.17;;;20.40;98.40;;;;;;5034725;28;20148;-73
2022/07/16 08:27:50;;;;;;;4.18;1.20;;;20.30;96.70;;;;;;5030680;28;20048;-70
2022/07/16 08:30:16;;;;;;;5.13;1.33;;;19.90;96.00;;;;;;5005259;28;20060;-70
2022/07/16 08:32:42;;;;;;;5.30;1.00;;;19.80;95.90;;;;;;5021192;28;20158;-69
2022/07/16 08:35:07;;;;;;;7.47;1.20;;;19.90;96.80;;;;;;5028350;28;20040;-69
2022/07/16 08:37:36;;;;;;;5.93;1.30;;;20.00;96.80;;;;;;5018991;28;20040;-71
2022/07/16 08:40:08;;;;;;;5.00;1.17;;;20.10;96.60;;;;;;5015615;28;20068;-69
2022/07/16 08:42:35;;;;;;;5.50;1.30;;;20.40;96.20;;;;;;5034507;28;20680;-72
2022/07/16 08:45:03;;;;;;;5.30;1.10;;;20.50;95.50;;;;;;5017177;28;20034;-69
2022/07/16 08:47:30;;;;;;;6.78;1.30;;;20.40;95.50;;;;;;5019374;28;20141;-70
2022/07/16 08:49:59;;;;;;;3.80;1.50;;;20.10;96.10;;;;;;5024532;28;20049;-72
2022/07/16 08:52:26;;;;;;;5.90;1.25;;;20.00;96.60;;;;;;5013377;28;20053;-71
2022/07/16 08:54:54;;;;;;;8.80;1.52;;;20.20;97.30;;;;;;5027367;28;20048;-72
2022/07/16 08:57:20;;;;;;;5.82;1.42;;;20.50;95.60;;;;;;5012568;28;20258;-72
2022/07/16 08:59:46;;;;;;;5.35;1.20;;;21.00;97.50;;;;;;5040268;28;20544;-71
2022/07/16 09:02:12;;;;;;;4.70;1.10;;;21.50;97.30;;;;;;5010966;28;20136;-71
2022/07/16 09:04:39;;;;;;;5.85;1.17;;;21.40;95.10;;;;;;5042269;28;20139;-70
2022/07/16 09:07:05;;;;;;;4.55;1.20;;;21.50;96.00;;;;;;5033352;28;20060;-70
2022/07/16 09:09:31;;;;;;;6.22;1.40;;;21.30;96.10;;;;;;5009791;28;20056;-71
2022/07/16 09:11:57;;;;;;;4.40;1.40;;;21.30;95.60;;;;;;5012209;28;21017;-70
2022/07/16 09:14:22;;;;;;;5.80;1.20;;;21.10;96.00;;;;;;5011003;28;20080;-70
2022/07/16 09:16:53;;;;;;;7.28;1.60;;;20.90;96.50;;;;;;4997120;28;20136;-70
2022/07/16 09:19:25;;;;;;;6.93;1.45;;;20.70;96.60;;;;;;5005646;28;20046;-71
2022/07/16 09:22:04;;;;;;;6.82;1.40;;;20.50;97.20;;;;;;5012653;28;20046;-71
2022/07/16 09:24:34;;;;;;;5.88;1.50;;;20.30;97.00;;;;;;5013616;28;20050;-76
2022/07/16 09:27:05;;;;;;;6.93;1.30;;;20.30;97.30;;;;;;5009239;28;20070;-70
2022/07/16 09:29:34;;;;;;;6.90;1.55;;;20.20;97.10;;;;;;5007158;28;20065;-74
2022/07/16 09:32:00;;;;;;;11.23;2.00;;;20.00;97.10;;;;;;5006474;28;20042;-85
2022/07/16 09:34:26;;;;;;;8.55;1.48;;;19.80;97.40;;;;;;5008055;28;20049;-78
2022/07/16 09:36:58;;;;;;;5.97;1.15;;;19.60;98.00;;;;;;5014607;28;20038;-76
2022/07/16 09:39:23;;;;;;;8.95;1.50;;;19.40;98.40;;;;;;5006326;28;20375;-75
2022/07/16 09:41:49;;;;;;;6.18;1.92;;;19.40;98.90;;;;;;5009728;28;20060;-77
2022/07/16 09:44:27;;;;;;;6.20;1.20;;;19.70;99.00;;;;;;5005552;28;20034;-72
2022/07/16 09:47:06;;;;;;;4.97;1.50;;;20.10;99.30;;;;;;5008194;28;20042;-71
2022/07/16 09:49:37;;;;;;;5.85;1.42;;;20.60;98.80;;;;;;5013942;28;20120;-75
2022/07/16 09:52:07;;;;;;;5.57;1.35;;;21.00;98.30;;;;;;5005268;28;20125;-72
2022/07/16 09:54:37;;;;;;;6.65;1.50;;;21.20;97.90;;;;;;5010429;28;20226;-83
2022/07/16 09:57:07;;;;;;;5.60;1.35;;;21.30;97.00;;;;;;5011876;28;20054;-78
2022/07/16 09:59:33;;;;;;;7.35;1.20;;;21.20;96.40;;;;;;5015079;28;20056;-74
2022/07/16 10:02:03;;;;;;;3.17;1.02;;;21.40;96.70;;;;;;5011447;28;20085;-75
2022/07/16 10:04:29;;;;;;;5.55;1.33;;;21.60;95.10;;;;;;5010211;28;20049;-74
2022/07/16 10:06:56;;;;;;;6.95;1.45;;;21.30;95.80;;;;;;5012086;28;20132;-79
2022/07/16 10:09:22;;;;;;;5.28;1.00;;;21.10;95.50;;;;;;5014605;28;20076;-74
2022/07/16 10:11:48;;;;;;;7.57;1.60;;;21.10;95.90;;;;;;5014295;28;20037;-71
2022/07/16 10:14:14;;;;;;;6.32;1.30;;;21.00;95.00;;;;;;5017915;28;20065;-78
2022/07/16 10:16:56;;;;;;;8.18;1.42;;;21.00;95.40;;;;;;5016022;28;20041;-68
2022/07/16 10:19:22;;;;;;;4.70;1.20;;;21.20;95.30;;;;;;5011248;28;20634;-69
2022/07/16 10:22:14;;;;;;;3.50;1.05;;;21.30;94.50;;;;;;5012241;28;20049;-72
2022/07/16 10:24:46;;;;;;;4.30;1.30;;;21.20;93.10;;;;;;5006653;28;20049;-71
2022/07/16 10:27:30;;;;;;;5.80;1.20;;;21.20;93.70;;;;;;5017931;28;20045;-73
2022/07/16 10:30:09;;;;;;;5.63;1.33;;;21.20;94.60;;;;;;5012758;28;20041;-72
2022/07/16 10:33:00;;;;;;;5.05;1.23;;;21.20;94.20;;;;;;5020651;28;20546;-75
2022/07/16 10:35:38;;;;;;;7.60;1.35;;;21.20;93.70;;;;;;5017315;28;20042;-74
2022/07/16 10:38:26;;;;;;;6.97;1.38;;;21.40;93.70;;;;;;5013971;28;20095;-75
2022/07/16 10:41:11;;;;;;;5.50;1.50;;;21.40;93.10;;;;;;5011323;28;20041;-76
2022/07/16 10:43:37;;;;;;;4.22;1.23;;;21.50;93.50;;;;;;5012371;28;20058;-72
2022/07/16 10:46:05;;;;;;;5.53;1.30;;;21.80;94.30;;;;;;5010883;28;20053;-78
2022/07/16 10:48:57;;;;;;;6.22;1.30;;;22.10;93.20;;;;;;5012426;28;20132;-74
2022/07/16 10:51:24;;;;;;;5.22;1.25;;;22.10;93.10;;;;;;5012964;28;20057;-74
2022/07/16 10:53:56;;;;;;;4.47;1.48;;;22.30;93.40;;;;;;5013939;28;20042;-74
2022/07/16 10:56:44;;;;;;;7.10;1.70;;;22.20;91.30;;;;;;5009492;28;20056;-71
2022/07/16 10:59:11;;;;;;;5.78;1.30;;;22.20;92.90;;;;;;5014970;28;20076;-71
2022/07/16 11:01:39;;;;;;;6.10;1.55;;;22.00;91.90;;;;;;5003995;28;20034;-72
2022/07/16 11:04:06;;;;;;;5.15;1.30;;;22.00;93.00;;;;;;5016143;28;20068;-72
2022/07/16 11:06:32;;;;;;;4.63;1.10;;;22.20;92.40;;;;;;5014439;28;20418;-73
2022/07/16 11:09:03;;;;;;;4.45;1.40;;;22.30;92.00;;;;;;5017216;28;20068;-71
2022/07/16 11:11:33;;;;;;;4.22;1.40;;;22.40;91.20;;;;;;5012371;28;20069;-74
2022/07/16 11:14:03;;;;;;;6.13;2.08;;;22.40;90.50;;;;;;5015884;28;20077;-75
2022/07/16 11:16:29;;;;;;;5.03;1.13;;;22.50;92.40;;;;;;5012180;28;20033;-74
2022/07/16 11:18:55;;;;;;;6.68;1.67;;;22.40;90.20;;;;;;5009116;28;20057;-69
2022/07/16 11:21:21;;;;;;;9.10;1.58;;;22.20;91.80;;;;;;5009758;28;20046;-80
2022/07/16 11:23:50;;;;;;;7.07;1.50;;;22.30;91.90;;;;;;5019924;28;20132;-77
2022/07/16 11:26:17;;;;;;;7.90;1.80;;;22.40;91.80;;;;;;5013111;28;20054;-79
2022/07/16 11:28:55;;;;;;;6.82;1.50;;;22.40;91.70;;;;;;5012864;28;20041;-69
2022/07/16 11:31:26;;;;;;;4.80;1.40;;;22.20;91.40;;;;;;5012302;28;20045;-71
2022/07/16 11:33:53;;;;;;;3.95;1.30;;;22.30;91.90;;;;;;5032066;28;20061;-70
2022/07/16 11:36:19;;;;;;;7.88;2.15;;;22.40;91.70;;;;;;5017750;28;20073;-71
2022/07/16 11:38:46;;;;;;;6.43;1.17;;;22.20;90.70;;;;;;5013588;28;20068;-73
2022/07/16 11:41:12;;;;;;;6.18;1.45;;;22.30;91.40;;;;;;5010539;28;20068;-70
2022/07/16 11:43:38;;;;;;;4.05;1.67;;;22.40;90.50;;;;;;5013517;28;20518;-70
2022/07/16 11:46:03;;;;;;;5.95;1.33;;;22.40;90.00;;;;;;5007498;28;20499;-70
2022/07/16 11:48:37;;;;;;;7.22;1.65;;;22.50;91.00;;;;;;5005712;28;20068;-70
2022/07/16 11:51:09;;;;;;;6.82;1.60;;;22.70;90.90;;;;;;5011854;28;20304;-75
2022/07/16 11:53:37;;;;;;;6.72;1.10;;;22.80;90.90;;;;;;5009721;28;20056;-73
2022/07/16 11:56:04;;;;;;;7.70;1.70;;;22.60;90.90;;;;;;5004322;28;20557;-71
2022/07/16 11:58:30;;;;;;;7.38;1.33;;;22.30;91.00;;;;;;5007564;28;20111;-73
2022/07/16 12:00:55;;;;;;;3.70;1.00;;;22.00;91.20;;;;;;5006843;28;20049;-71
2022/07/16 12:03:22;;;;;;;6.47;1.60;;;21.80;91.30;;;;;;5017472;28;20042;-72
2022/07/16 12:05:58;;;;;;;7.60;1.70;;;21.90;91.80;;;;;;5019846;28;20065;-74
2022/07/16 12:08:24;;;;;;;7.13;1.60;;;21.90;91.70;;;;;;5010275;28;20046;-71
2022/07/16 12:11:04;;;;;;;4.65;1.35;;;21.70;90.40;;;;;;5012427;28;20145;-71
2022/07/16 12:13:29;;;;;;;3.65;1.40;;;21.60;91.40;;;;;;5017099;28;20095;-72
2022/07/16 12:15:57;;;;;;;7.72;1.50;;;21.70;91.20;;;;;;5022428;28;20140;-69
2022/07/16 12:18:23;;;;;;;7.30;1.75;;;22.00;91.50;;;;;;5017251;28;20053;-72
2022/07/16 12:20:50;;;;;;;4.43;1.05;;;22.30;89.70;;;;;;5011969;28;20046;-73
2022/07/16 12:23:37;;;;;;;6.10;1.20;;;22.50;90.80;;;;;;5013546;28;20497;-73
2022/07/16 12:26:05;;;;;;;3.63;1.23;;;22.60;88.40;;;;;;5019128;28;20060;-72
2022/07/16 12:28:32;;;;;;;4.97;1.08;;;22.50;89.70;;;;;;5018130;28;20057;-72
2022/07/16 12:31:00;;;;;;;4.20;1.10;;;22.60;90.70;;;;;;5019054;28;20046;-73
2022/07/16 12:33:28;;;;;;;5.70;1.15;;;22.50;90.30;;;;;;5019107;28;20033;-72
2022/07/16 12:36:03;;;;;;;3.13;1.10;;;22.30;90.20;;;;;;5010416;28;20060;-72
2022/07/16 12:38:38;;;;;;;6.80;1.67;;;22.30;90.20;;;;;;5018951;28;20037;-73
2022/07/16 12:41:09;;;;;;;7.47;1.40;;;22.40;91.10;;;;;;5011902;28;20936;-74
2022/07/16 12:43:35;;;;;;;6.82;1.38;;;22.20;90.30;;;;;;5011754;28;20042;-73
2022/07/16 12:46:01;;;;;;;6.25;1.30;;;22.10;90.80;;;;;;5016191;28;20551;-72
2022/07/16 12:48:30;;;;;;;8.13;1.23;;;22.20;89.90;;;;;;5022621;28;20136;-73
2022/07/16 12:50:56;;;;;;;6.00;1.40;;;22.30;90.70;;;;;;5012986;28;20045;-72
2022/07/16 12:53:22;;;;;;;5.38;1.10;;;22.40;89.20;;;;;;5008141;28;20049;-73